createdAt,value
2019-01-25T00:03:10.249Z,-3.25
2019-01-25T00:05:55.542Z,-3.27
2019-01-25T00:08:22.408Z,-3.27
2019-01-25T00:10:49.147Z,-3.26
2019-01-25T00:13:16.633Z,-3.35
2019-01-25T00:15:44.452Z,-3.38
2019-01-25T00:18:31.166Z,-3.55
2019-01-25T00:21:11.310Z,-3.58
2019-01-25T00:23:50.671Z,-3.58
2019-01-25T00:26:29.882Z,-3.58
2019-01-25T00:29:10.015Z,-3.38
2019-01-25T00:34:15.421Z,-3.24
2019-01-25T00:36:42.291Z,-3.19
2019-01-25T00:41:06.396Z,-3.27
2019-01-25T00:43:33.239Z,-3.47
2019-01-25T00:45:59.982Z,-3.48
2019-01-25T00:48:27.119Z,-3.42
2019-01-25T00:50:53.937Z,-3.52
2019-01-25T00:53:20.682Z,-3.46
2019-01-25T00:55:47.771Z,-3.38
2019-01-25T00:58:14.895Z,-3.40
2019-01-25T01:00:41.646Z,-3.22
2019-01-25T01:03:08.477Z,-3.34
2019-01-25T01:05:54.869Z,-3.35
2019-01-25T01:08:21.858Z,-3.35
2019-01-25T01:10:48.906Z,-3.33
2019-01-25T01:13:15.927Z,-3.19
2019-01-25T01:16:02.385Z,-3.22
2019-01-25T01:18:29.226Z,-3.22
2019-01-25T01:21:15.576Z,-3.06
2019-01-25T01:23:42.314Z,-3.06
2019-01-25T01:26:09.074Z,-2.92
2019-01-25T01:28:36.324Z,-2.95
2019-01-25T01:31:03.065Z,-2.93
2019-01-25T01:33:29.807Z,-2.96
2019-01-25T01:35:56.675Z,-3.00
2019-01-25T01:38:23.427Z,-3.30
2019-01-25T01:40:50.171Z,-3.33
2019-01-25T01:43:17.166Z,-3.12
2019-01-25T01:45:44.186Z,-3.03
2019-01-25T01:48:10.934Z,-3.03
2019-01-25T01:50:57.250Z,-3.02
2019-01-25T01:53:24.095Z,-3.02
2019-01-25T01:55:51.142Z,-2.96
2019-01-25T01:58:18.015Z,-2.93
2019-01-25T02:00:44.763Z,-2.96
2019-01-25T02:03:11.782Z,-2.98
2019-01-25T02:05:38.619Z,-2.87
2019-01-25T02:08:05.456Z,-2.87
2019-01-25T02:10:32.190Z,-2.87
2019-01-25T02:12:59.091Z,-3.21
2019-01-25T02:15:25.938Z,-3.04
2019-01-25T02:18:33.849Z,-2.94
2019-01-25T02:21:41.717Z,-3.11
2019-01-25T02:24:08.634Z,-3.09
2019-01-25T02:26:35.273Z,-3.02
2019-01-25T02:29:02.181Z,-2.99
2019-01-25T02:31:48.524Z,-3.00
2019-01-25T02:34:15.257Z,-3.00
2019-01-25T02:36:42.282Z,-3.05
2019-01-25T02:39:09.252Z,-3.02
2019-01-25T02:41:36.098Z,-3.12
2019-01-25T02:44:02.986Z,-3.27
2019-01-25T02:46:29.848Z,-3.27
2019-01-25T02:48:56.601Z,-3.30
2019-01-25T02:51:23.531Z,-3.22
2019-01-25T02:53:50.674Z,-2.99
2019-01-25T02:56:37.303Z,-3.03
2019-01-25T02:59:23.838Z,-3.11
2019-01-25T03:02:10.100Z,-2.97
2019-01-25T03:04:36.960Z,-2.97
2019-01-25T03:07:04.072Z,-3.01
2019-01-25T03:09:30.816Z,-3.01
2019-01-25T03:12:17.376Z,-2.85
2019-01-25T03:14:44.118Z,-2.95
2019-01-25T03:17:30.511Z,-2.84
2019-01-25T03:19:57.260Z,-2.84
2019-01-25T03:22:23.914Z,-2.86
2019-01-25T03:25:11.397Z,-2.82
2019-01-25T03:27:38.236Z,-2.82
2019-01-25T03:30:46.529Z,-2.85
2019-01-25T03:33:32.762Z,-2.77
2019-01-25T03:35:59.588Z,-2.77
2019-01-25T03:38:26.234Z,-2.83
2019-01-25T03:41:12.588Z,-2.83
2019-01-25T03:43:39.637Z,-2.83
2019-01-25T03:46:06.484Z,-2.85
2019-01-25T03:48:33.730Z,-2.77
2019-01-25T03:51:00.579Z,-2.88
2019-01-25T03:53:27.324Z,-2.89
2019-01-25T03:55:54.193Z,-2.88
2019-01-25T03:58:21.605Z,-2.89
2019-01-25T04:01:08.622Z,-2.81
2019-01-25T04:03:35.385Z,-2.81
2019-01-25T04:06:02.130Z,-2.84
2019-01-25T04:08:48.979Z,-2.91
2019-01-25T04:11:16.091Z,-2.91
2019-01-25T04:13:42.826Z,-2.99
2019-01-25T04:16:09.799Z,-2.90
2019-01-25T04:18:36.540Z,-2.80
2019-01-25T04:21:23.098Z,-2.77
2019-01-25T04:23:50.236Z,-2.77
2019-01-25T04:26:17.389Z,-2.86
2019-01-25T04:28:44.260Z,-2.92
2019-01-25T04:31:23.408Z,-2.96
2019-01-25T04:34:02.660Z,-2.84
2019-01-25T04:36:30.054Z,-2.84
2019-01-25T04:38:56.798Z,-2.80
2019-01-25T04:41:43.298Z,-2.92
2019-01-25T04:44:09.945Z,-2.92
2019-01-25T04:46:36.968Z,-2.81
2019-01-25T04:49:03.967Z,-2.83
2019-01-25T04:51:30.703Z,-2.80
2019-01-25T04:53:57.563Z,-2.89
2019-01-25T04:56:24.512Z,-2.96
2019-01-25T04:59:10.874Z,-2.92
2019-01-25T05:01:37.742Z,-2.95
2019-01-25T05:07:14.219Z,-3.00
2019-01-25T05:09:40.958Z,-3.04
2019-01-25T05:12:07.712Z,-2.84
2019-01-25T05:14:54.039Z,-2.94
2019-01-25T05:17:40.295Z,-2.97
2019-01-25T05:20:26.734Z,-2.91
2019-01-25T05:22:55.759Z,-2.88
2019-01-25T05:25:23.874Z,-2.88
2019-01-25T05:27:51.179Z,-2.98
2019-01-25T05:30:37.839Z,-3.01
2019-01-25T05:33:05.210Z,-3.01
2019-01-25T05:35:33.915Z,-2.94
2019-01-25T05:38:13.336Z,-2.93
2019-01-25T05:40:40.621Z,-2.93
2019-01-25T05:44:31.900Z,-2.91
2019-01-25T05:46:58.882Z,-2.95
2019-01-25T05:49:25.623Z,-3.07
2019-01-25T05:51:52.502Z,-2.96
2019-01-25T05:54:19.246Z,-2.98
2019-01-25T05:56:45.926Z,-3.00
2019-01-25T05:59:32.401Z,-2.95
2019-01-25T06:01:59.164Z,-2.95
2019-01-25T06:04:32.279Z,-3.12
2019-01-25T06:06:59.219Z,-3.10
2019-01-25T06:09:25.966Z,-3.10
2019-01-25T06:11:52.718Z,-3.09
2019-01-25T06:14:19.554Z,-3.09
2019-01-25T06:16:46.288Z,-3.03
2019-01-25T06:19:52.231Z,-3.09
2019-01-25T06:22:19.289Z,-3.09
2019-01-25T06:24:47.227Z,-3.14
2019-01-25T06:27:14.549Z,-3.21
2019-01-25T06:29:41.243Z,-3.21
2019-01-25T06:32:08.195Z,-3.14
2019-01-25T06:34:54.692Z,-3.14
2019-01-25T06:37:21.522Z,-3.14
2019-01-25T06:40:01.101Z,-3.12
2019-01-25T06:42:27.902Z,-3.16
2019-01-25T06:44:54.764Z,-3.16
2019-01-25T06:47:41.226Z,-3.25
2019-01-25T06:50:27.628Z,-3.27
2019-01-25T06:52:55.157Z,-3.27
2019-01-25T06:55:22.002Z,-3.23
2019-01-25T06:58:08.434Z,-3.22
2019-01-25T07:03:46.837Z,-3.12
2019-01-25T07:06:33.216Z,-3.14
2019-01-25T07:09:00.027Z,-3.19
2019-01-25T07:11:51.627Z,-3.19
2019-01-25T07:14:15.308Z,-3.00
2019-01-25T07:16:42.291Z,-3.00
2019-01-25T07:19:28.774Z,-3.12
2019-01-25T07:21:55.646Z,-3.12
2019-01-25T07:24:22.583Z,-3.06
2019-01-25T07:26:49.409Z,-3.10
2019-01-25T07:29:35.788Z,-2.89
2019-01-25T07:32:02.942Z,-2.88
2019-01-25T07:34:49.209Z,-2.96
2019-01-25T07:37:29.270Z,-2.85
2019-01-25T07:39:56.377Z,-2.85
2019-01-25T07:42:23.564Z,-3.07
2019-01-25T07:45:03.861Z,-3.00
2019-01-25T07:47:32.756Z,-3.00
2019-01-25T07:50:19.184Z,-3.06
2019-01-25T07:52:46.409Z,-3.06
2019-01-25T07:55:13.251Z,-3.14
2019-01-25T07:57:40.370Z,-3.09
2019-01-25T08:00:07.853Z,-2.98
2019-01-25T08:02:54.315Z,-2.88
2019-01-25T08:05:21.633Z,-2.88
2019-01-25T08:07:48.547Z,-3.05
2019-01-25T08:10:16.057Z,-3.23
2019-01-25T08:12:43.157Z,-3.23
2019-01-25T08:15:12.585Z,-2.93
2019-01-25T08:17:39.500Z,-2.93
2019-01-25T08:22:55.656Z,-2.99
2019-01-25T08:25:22.545Z,-2.99
2019-01-25T08:27:49.380Z,-3.02
2019-01-25T08:30:16.701Z,-2.93
2019-01-25T08:32:43.541Z,-2.86
2019-01-25T08:35:11.056Z,-2.91
2019-01-25T08:37:37.869Z,-2.90
2019-01-25T08:40:05.029Z,-2.74
2019-01-25T08:42:31.908Z,-2.72
2019-01-25T08:44:59.822Z,-2.72
2019-01-25T08:47:28.020Z,-2.53
2019-01-25T08:50:15.529Z,-2.46
2019-01-25T08:52:42.337Z,-2.43
2019-01-25T08:55:09.362Z,-2.43
2019-01-25T08:57:36.426Z,-2.35
2019-01-25T09:00:45.284Z,-2.45
2019-01-25T09:03:12.104Z,-2.35
2019-01-25T09:05:58.667Z,-2.61
2019-01-25T09:08:26.995Z,-2.61
2019-01-25T09:11:14.753Z,-2.41
2019-01-25T09:13:42.493Z,-2.41
2019-01-25T09:16:28.895Z,-2.36
2019-01-25T09:19:15.699Z,-2.30
2019-01-25T09:21:42.486Z,-2.30
2019-01-25T09:24:09.385Z,-2.21
2019-01-25T09:26:56.037Z,-2.30
2019-01-25T09:29:23.064Z,-2.34
2019-01-25T09:31:49.951Z,-2.33
2019-01-25T09:34:16.689Z,-2.31
2019-01-25T09:36:43.804Z,-2.31
2019-01-25T09:39:30.213Z,-1.96
2019-01-25T09:41:57.988Z,-1.96
2019-01-25T09:44:25.007Z,-2.01
2019-01-25T09:46:53.490Z,-1.81
2019-01-25T09:52:26.045Z,-1.85
2019-01-25T09:54:53.001Z,-1.85
2019-01-25T09:57:20.706Z,-1.89
2019-01-25T09:59:48.004Z,-2.01
2019-01-25T10:02:14.885Z,-2.00
2019-01-25T10:04:41.668Z,-1.87
2019-01-25T10:07:08.599Z,-1.87
2019-01-25T10:09:35.389Z,-1.95
2019-01-25T10:12:02.424Z,-1.56
2019-01-25T10:14:29.356Z,-1.29
2019-01-25T10:16:56.167Z,-0.93
2019-01-25T10:19:23.213Z,-1.10
2019-01-25T10:21:50.133Z,-1.14
2019-01-25T10:24:17.272Z,-1.30
2019-01-25T10:26:44.460Z,-1.19
2019-01-25T10:29:11.382Z,-1.23
2019-01-25T10:31:38.322Z,-0.98
2019-01-25T10:34:05.295Z,-0.65
2019-01-25T10:36:32.570Z,-0.64
2019-01-25T10:39:18.836Z,-0.50
2019-01-25T10:41:45.550Z,-0.50
2019-01-25T10:44:12.568Z,-0.61
2019-01-25T10:46:39.302Z,-0.42
2019-01-25T10:49:06.119Z,-0.44
2019-01-25T10:51:32.873Z,-0.50
2019-01-25T10:53:59.611Z,-0.36
2019-01-25T10:56:41.888Z,-0.64
2019-01-25T10:59:08.033Z,-0.64
2019-01-25T11:01:34.841Z,-0.83
2019-01-25T11:04:02.101Z,-0.90
2019-01-25T11:06:28.837Z,-0.86
2019-01-25T11:08:55.856Z,-0.92
2019-01-25T11:11:22.758Z,-0.91
2019-01-25T11:13:49.486Z,-0.74
2019-01-25T11:16:16.226Z,-0.78
2019-01-25T11:18:43.355Z,-0.61
2019-01-25T11:21:11.312Z,-0.46
2019-01-25T11:23:58.503Z,-0.60
2019-01-25T11:26:25.401Z,-0.60
2019-01-25T11:28:52.609Z,-0.88
2019-01-25T11:31:19.591Z,-0.85
2019-01-25T11:33:46.725Z,-0.96
2019-01-25T11:36:13.520Z,-1.24
2019-01-25T11:38:40.588Z,-1.32
2019-01-25T11:41:07.646Z,-1.37
2019-01-25T11:43:34.929Z,-1.32
2019-01-25T11:46:02.249Z,-1.56
2019-01-25T11:48:29.177Z,-1.62
2019-01-25T11:51:01.095Z,-1.68
2019-01-25T11:53:28.329Z,-1.69
2019-01-25T11:55:55.543Z,-1.72
2019-01-25T11:58:22.564Z,-1.76
2019-01-25T13:14:10.541Z,-1.69
2019-01-25T13:16:37.315Z,-1.51
2019-01-25T13:19:04.389Z,-1.39
2019-01-25T13:21:32.035Z,-1.23
2019-01-25T13:23:58.978Z,-1.22
2019-01-25T13:26:26.104Z,-1.16
2019-01-25T13:28:52.987Z,-1.12
2019-01-25T13:31:19.817Z,-1.09
2019-01-25T13:33:46.902Z,-0.96
2019-01-25T13:36:13.787Z,-0.91
2019-01-25T13:38:40.740Z,-0.97
2019-01-25T13:41:07.602Z,-0.92
2019-01-25T13:43:54.009Z,-1.03
2019-01-25T13:46:20.904Z,-1.03
2019-01-25T13:48:47.659Z,-1.08
2019-01-25T13:51:15.110Z,-1.14
2019-01-25T13:53:42.475Z,-1.14
2019-01-25T13:56:09.296Z,-1.12
2019-01-25T13:58:55.682Z,-1.25
2019-01-25T14:01:22.430Z,-1.20
2019-01-25T14:03:49.338Z,-1.30
2019-01-25T14:06:16.320Z,-1.29
2019-01-25T14:08:43.164Z,-1.25
2019-01-25T14:11:10.277Z,-1.40
2019-01-25T14:13:37.012Z,-1.38
2019-01-25T14:16:16.197Z,-1.39
2019-01-25T14:18:45.038Z,-1.39
2019-01-25T14:21:12.162Z,-1.18
2019-01-25T14:23:38.897Z,-1.22
2019-01-25T14:26:05.858Z,-1.20
2019-01-25T14:28:32.616Z,-1.21
2019-01-25T14:30:59.359Z,-1.22
2019-01-25T14:33:26.827Z,-1.30
2019-01-25T14:35:53.595Z,-1.30
2019-01-25T14:38:20.339Z,-1.34
2019-01-25T14:40:48.161Z,-1.48
2019-01-25T14:43:14.917Z,-1.50
2019-01-25T14:45:42.037Z,-1.42
2019-01-25T14:48:09.262Z,-1.46
2019-01-25T14:50:36.394Z,-1.44
2019-01-25T14:53:44.638Z,-1.43
2019-01-25T14:56:12.164Z,-1.41
2019-01-25T14:58:39.339Z,-1.53
2019-01-25T15:01:06.407Z,-1.65
2019-01-25T15:03:33.547Z,-1.75
2019-01-25T15:06:00.475Z,-1.82
2019-01-25T15:08:27.374Z,-1.84
2019-01-25T15:10:54.148Z,-1.90
2019-01-25T15:13:20.895Z,-1.85
2019-01-25T15:15:47.895Z,-1.87
2019-01-25T15:18:14.800Z,-1.83
2019-01-25T15:20:41.678Z,-1.83
2019-01-25T15:23:08.636Z,-1.71
2019-01-25T15:25:35.410Z,-1.81
2019-01-25T15:28:02.570Z,-1.84
2019-01-25T15:30:30.749Z,-1.93
2019-01-25T15:32:57.981Z,-1.84
2019-01-25T15:35:24.970Z,-1.81
2019-01-25T15:37:51.786Z,-1.77
2019-01-25T15:40:18.636Z,-1.82
2019-01-25T15:42:45.482Z,-1.82
2019-01-25T15:45:54.202Z,-1.83
2019-01-25T15:48:21.100Z,-1.86
2019-01-25T15:50:47.995Z,-1.84
2019-01-25T15:53:15.215Z,-1.76
2019-01-25T15:55:42.531Z,-1.74
2019-01-25T15:58:09.329Z,-1.80
2019-01-25T16:00:36.414Z,-1.82
2019-01-25T16:03:03.449Z,-1.79
2019-01-25T16:05:30.401Z,-1.75
2019-01-25T16:07:57.575Z,-1.77
2019-01-25T16:10:24.444Z,-1.84
2019-01-25T16:12:51.923Z,-1.81
2019-01-25T16:15:21.076Z,-1.88
2019-01-25T16:18:28.862Z,-1.86
2019-01-25T16:21:08.406Z,-1.90
2019-01-25T16:23:35.296Z,-1.85
2019-01-25T16:26:02.189Z,-1.90
2019-01-25T16:28:29.277Z,-1.92
2019-01-25T16:30:56.185Z,-1.86
2019-01-25T16:33:23.075Z,-1.92
2019-01-25T16:35:50.102Z,-1.85
2019-01-25T16:38:16.990Z,-2.06
2019-01-25T16:40:44.333Z,-2.00
2019-01-25T16:43:11.883Z,-1.99
2019-01-25T16:45:40.955Z,-2.24
2019-01-25T16:48:07.866Z,-2.04
2019-01-25T16:50:35.488Z,-2.28
2019-01-25T16:53:02.458Z,-2.13
2019-01-25T16:55:30.252Z,-2.08
2019-01-25T16:58:17.720Z,-1.97
2019-01-25T17:00:46.056Z,-1.97
2019-01-25T17:03:12.962Z,-2.17
2019-01-25T17:05:39.977Z,-2.02
2019-01-25T17:08:07.392Z,-1.96
2019-01-25T17:10:34.807Z,-1.85
2019-01-25T17:13:01.877Z,-1.91
2019-01-25T17:15:28.766Z,-1.90
2019-01-25T17:17:55.658Z,-1.89
2019-01-25T17:20:22.841Z,-1.93
2019-01-25T17:23:02.917Z,-2.01
2019-01-25T17:25:29.731Z,-1.93
2019-01-25T17:27:56.767Z,-2.12
2019-01-25T17:30:25.805Z,-1.95
2019-01-25T17:32:53.757Z,-1.91
2019-01-25T17:35:20.602Z,-2.10
2019-01-25T17:37:47.359Z,-1.92
2019-01-25T17:40:15.549Z,-1.92
2019-01-25T17:42:42.391Z,-2.00
2019-01-25T17:48:45.390Z,-1.90
2019-01-25T17:51:12.374Z,-1.93
2019-01-25T17:53:40.005Z,-1.98
2019-01-25T17:56:08.173Z,-1.98
2019-01-25T17:58:34.934Z,-2.03
2019-01-25T18:01:01.951Z,-1.91
2019-01-25T18:03:28.655Z,-1.96
2019-01-25T18:05:55.616Z,-1.88
2019-01-25T18:08:22.879Z,-1.88
2019-01-25T18:10:49.844Z,-1.83
2019-01-25T18:13:16.595Z,-1.85
2019-01-25T18:15:43.457Z,-1.88
2019-01-25T18:18:10.935Z,-1.90
2019-01-25T18:20:37.686Z,-1.88
2019-01-25T18:23:04.833Z,-1.95
2019-01-25T18:25:45.033Z,-1.85
2019-01-25T18:28:15.489Z,-2.07
2019-01-25T18:30:51.809Z,-1.99
2019-01-25T18:33:18.658Z,-1.95
2019-01-25T18:35:45.692Z,-2.05
2019-01-25T18:38:12.599Z,-2.03
2019-01-25T18:40:39.456Z,-1.99
2019-01-25T18:43:06.432Z,-1.93
2019-01-25T18:45:33.384Z,-1.90
2019-01-25T18:48:00.135Z,-1.86
2019-01-25T18:50:27.099Z,-1.91
2019-01-25T18:52:53.985Z,-1.95
2019-01-25T18:55:21.248Z,-1.86
2019-01-25T18:57:48.111Z,-1.82
2019-01-25T19:00:17.065Z,-1.80
2019-01-25T19:02:43.892Z,-1.73
2019-01-25T19:05:11.375Z,-1.75
2019-01-25T19:07:38.169Z,-1.70
2019-01-25T19:10:07.672Z,-1.72
2019-01-25T19:12:34.316Z,-1.70
2019-01-25T19:15:22.097Z,-1.70
2019-01-25T19:17:48.948Z,-1.70
2019-01-25T19:20:15.836Z,-1.57
2019-01-25T19:22:42.699Z,-1.57
2019-01-25T19:25:09.850Z,-1.54
2019-01-25T19:27:50.454Z,-1.60
2019-01-25T19:30:20.627Z,-1.77
2019-01-25T19:32:47.497Z,-1.82
2019-01-25T19:35:14.413Z,-1.81
2019-01-25T19:37:41.301Z,-1.76
2019-01-25T19:40:10.369Z,-1.94
2019-01-25T19:42:37.282Z,-1.96
2019-01-25T19:45:45.667Z,-1.98
2019-01-25T19:48:12.640Z,-2.04
2019-01-25T19:50:40.140Z,-2.00
2019-01-25T19:53:06.996Z,-1.97
2019-01-25T19:55:33.929Z,-2.04
2019-01-25T19:58:00.795Z,-2.05
2019-01-25T20:00:47.102Z,-2.08
2019-01-25T20:03:13.971Z,-2.08
2019-01-25T20:05:40.964Z,-2.03
2019-01-25T20:08:07.864Z,-2.02
2019-01-25T20:10:34.619Z,-1.92
2019-01-25T20:13:01.804Z,-2.04
2019-01-25T20:15:29.054Z,-2.07
2019-01-25T20:17:55.911Z,-2.12
2019-01-25T20:20:27.258Z,-2.11
2019-01-25T20:22:54.167Z,-2.05
2019-01-25T20:25:21.159Z,-2.18
2019-01-25T20:27:48.491Z,-2.19
2019-01-25T20:30:58.098Z,-2.18
2019-01-25T20:33:25.013Z,-2.11
2019-01-25T20:35:52.197Z,-2.29
2019-01-25T20:38:38.516Z,-2.21
2019-01-25T20:41:07.191Z,-2.21
2019-01-25T20:43:33.946Z,-2.24
2019-01-25T20:46:00.871Z,-2.27
2019-01-25T20:48:27.547Z,-2.25
2019-01-25T20:50:54.347Z,-2.27
2019-01-25T20:53:21.234Z,-2.22
2019-01-25T20:55:48.369Z,-2.27
2019-01-25T20:58:15.223Z,-2.27
2019-01-25T21:00:42.202Z,-2.23
2019-01-25T21:03:11.385Z,-2.23
2019-01-25T21:05:38.238Z,-2.22
2019-01-25T21:08:05.151Z,-2.22
2019-01-25T21:10:31.903Z,-2.20
2019-01-25T21:12:59.278Z,-2.19
2019-01-25T21:15:26.579Z,-2.20
2019-01-25T21:17:54.167Z,-2.17
2019-01-25T21:20:27.005Z,-2.22
2019-01-25T21:22:54.160Z,-2.20
2019-01-25T21:25:40.516Z,-2.13
2019-01-25T21:28:07.419Z,-2.13
2019-01-25T21:30:46.940Z,-2.13
2019-01-25T21:33:13.838Z,-2.17
2019-01-25T21:35:40.580Z,-2.09
2019-01-25T21:38:07.338Z,-2.16
2019-01-25T21:41:15.292Z,-2.11
2019-01-25T21:43:41.947Z,-2.12
2019-01-25T21:46:08.702Z,-2.07
2019-01-25T21:48:35.624Z,-2.06
2019-01-25T21:51:02.514Z,-2.14
2019-01-25T21:53:29.763Z,-1.99
2019-01-25T21:55:56.672Z,-2.10
2019-01-25T21:58:23.998Z,-2.04
2019-01-25T22:00:50.896Z,-2.04
2019-01-25T22:03:17.700Z,-2.06
2019-01-25T22:05:44.457Z,-2.01
2019-01-25T22:08:11.355Z,-1.96
2019-01-25T22:10:41.254Z,-1.99
2019-01-25T22:13:08.099Z,-1.97
2019-01-25T22:15:34.970Z,-1.98
2019-01-25T22:18:02.427Z,-1.94
2019-01-25T22:20:29.412Z,-1.81
2019-01-25T22:22:56.256Z,-1.84
2019-01-25T22:25:23.304Z,-1.85
2019-01-25T22:27:52.233Z,-1.68
2019-01-25T22:30:20.758Z,-1.76
2019-01-25T22:33:00.524Z,-1.83
2019-01-25T22:35:27.375Z,-1.77
2019-01-25T22:37:54.797Z,-1.79
2019-01-25T22:41:04.016Z,-1.75
2019-01-25T22:43:30.753Z,-1.75
2019-01-25T22:45:58.784Z,-1.71
2019-01-25T22:48:26.725Z,-1.70
2019-01-25T22:50:53.575Z,-1.62
2019-01-25T22:53:20.695Z,-1.68
2019-01-25T22:55:47.625Z,-1.69
2019-01-25T22:58:14.442Z,-1.69
2019-01-25T23:04:22.379Z,-1.72
2019-01-25T23:07:10.403Z,-1.91
2019-01-25T23:09:40.366Z,-1.80
2019-01-25T23:12:48.426Z,-1.81
2019-01-25T23:15:16.631Z,-1.90
2019-01-25T23:17:44.304Z,-1.87
2019-01-25T23:22:40.955Z,-1.85
2019-01-25T23:25:09.034Z,-1.83
2019-01-25T23:27:36.016Z,-1.82
2019-01-25T23:30:44.419Z,-1.80
2019-01-25T23:33:11.840Z,-1.80
2019-01-25T23:35:38.813Z,-1.75
2019-01-25T23:38:06.261Z,-1.71
2019-01-25T23:41:14.045Z,-1.69
2019-01-25T23:43:41.232Z,-1.82
2019-01-25T23:46:13.767Z,-1.72
2019-01-25T23:48:36.929Z,-1.78
2019-01-25T23:51:03.904Z,-1.86
2019-01-25T23:53:30.655Z,-1.92
2019-01-25T23:55:57.414Z,-1.86
2019-01-25T23:58:24.252Z,-2.03
